This is the latest recevied weather packets stored in our database for station/object OK2PYA-5. If no packets are shown the sender has not sent any weather packets the latest 10 day(s).
| Time | Temp. | Humidity | Pressure | Rain* | Wind** | Luminosity | Snow |
|---|---|---|---|---|---|---|---|
| 1777284299 | 10° C | 60% | 1021.2 hPa | - | - | - | - |
| 1777282372 | 9.44° C | 59% | 1021.4 hPa | - | - | - | - |
| 1777280445 | 8.89° C | 63% | 1021.6 hPa | - | - | - | - |
| 1777278519 | 8.89° C | 66% | 1021.7 hPa | - | - | - | - |
| 1777276592 | 7.22° C | 76% | 1021.7 hPa | - | - | - | - |
| 1777274665 | 6.11° C | 79% | 1021.8 hPa | - | - | - | - |
| 1777272738 | 3.89° C | 90% | 1021.9 hPa | - | - | - | - |
| 1777270811 | 2.22° C | 96% | 1022 hPa | - | - | - | - |
| 1777268885 | 1.11° C | 100% | 1021.9 hPa | - | - | - | - |
| 1777266958 | 0° C | 99% | 1021.9 hPa | - | - | - | - |
| 1777265031 | 0° C | 97% | 1021.8 hPa | - | - | - | - |
| 1777262700 | 0° C | 96% | 1021.6 hPa | - | - | - | - |
| 1777260773 | 0° C | 95% | 1021.5 hPa | - | - | - | - |
| 1777258847 | 0.56° C | 93% | 1021.7 hPa | - | - | - | - |
| 1777256920 | 1.11° C | 91% | 1021.8 hPa | - | - | - | - |
| 1777254993 | 0.56° C | 93% | 1022 hPa | - | - | - | - |
| 1777253066 | 1.11° C | 92% | 1021.9 hPa | - | - | - | - |
| 1777251139 | 1.67° C | 89% | 1022 hPa | - | - | - | - |
| 1777249212 | 1.67° C | 89% | 1022.1 hPa | - | - | - | - |
| 1777247285 | 2.78° C | 85% | 1022.4 hPa | - | - | - | - |
| 1777245358 | 3.33° C | 84% | 1022.4 hPa | - | - | - | - |
| 1777243431 | 3.33° C | 84% | 1022.4 hPa | - | - | - | - |
| 1777241098 | 3.33° C | 83% | 1022.4 hPa | - | - | - | - |
| 1777239171 | 5° C | 78% | 1022.3 hPa | - | - | - | - |
| 1777237244 | 5.56° C | 75% | 1022.2 hPa | - | - | - | - |
* Rain since midnight (hover to see other rain measurements)
** Current wind speed in m/s (hover to see current wind gust speed)